createdAt,value
2022-09-14T00:02:13.670Z,6.83
2022-09-14T00:04:41.946Z,6.23
2022-09-14T00:07:08.309Z,6.90
2022-09-14T00:09:34.722Z,8.13
2022-09-14T00:12:01.294Z,6.80
2022-09-14T00:14:27.666Z,5.93
2022-09-14T00:16:54.039Z,7.17
2022-09-14T00:19:21.565Z,7.87
2022-09-14T00:21:50.302Z,8.87
2022-09-14T00:24:16.658Z,5.60
2022-09-14T00:26:42.996Z,5.60
2022-09-14T00:29:10.050Z,9.03
2022-09-14T00:31:38.011Z,6.63
2022-09-14T00:34:05.982Z,7.90
2022-09-14T00:36:33.216Z,8.20
2022-09-14T00:39:00.591Z,9.90
2022-09-14T00:41:28.782Z,7.73
2022-09-14T00:43:57.622Z,5.67
2022-09-14T00:46:25.346Z,8.97
2022-09-14T00:48:52.562Z,5.43
2022-09-14T00:51:19.678Z,6.80
2022-09-14T00:53:46.411Z,6.83
2022-09-14T00:56:12.724Z,9.93
2022-09-14T00:58:39.146Z,10.70
2022-09-14T01:01:05.611Z,9.57
2022-09-14T01:03:31.995Z,7.23
2022-09-14T01:06:03.520Z,5.17
2022-09-14T01:08:48.675Z,5.90
2022-09-14T01:11:21.199Z,5.70
2022-09-14T01:14:17.163Z,6.27
2022-09-14T01:16:48.564Z,6.57
2022-09-14T01:19:22.234Z,7.43
2022-09-14T01:21:50.570Z,6.43
2022-09-14T01:24:25.492Z,6.90
2022-09-14T01:27:01.022Z,5.10
2022-09-14T01:29:39.566Z,4.27
2022-09-14T01:32:08.934Z,5.87
2022-09-14T01:34:41.031Z,4.57
2022-09-14T01:37:13.005Z,4.93
2022-09-14T01:39:44.077Z,5.87
2022-09-14T01:42:11.994Z,6.40
2022-09-14T01:44:39.948Z,8.30
2022-09-14T01:47:10.251Z,5.83
2022-09-14T01:49:40.409Z,6.10
2022-09-14T01:52:32.841Z,7.70
2022-09-14T01:55:15.130Z,7.67
2022-09-14T01:57:48.008Z,6.37
2022-09-14T02:00:18.604Z,8.77
2022-09-14T02:03:00.567Z,5.40
2022-09-14T02:05:47.278Z,7.20
2022-09-14T02:08:13.680Z,7.23
2022-09-14T02:10:40.593Z,7.63
2022-09-14T02:13:08.014Z,10.30
2022-09-14T02:15:35.565Z,11.43
2022-09-14T02:18:01.985Z,13.60
2022-09-14T02:20:31.267Z,13.40
2022-09-14T02:22:57.718Z,9.77
2022-09-14T02:25:24.059Z,8.20
2022-09-14T02:27:52.939Z,4.57
2022-09-14T02:30:20.691Z,5.67
2022-09-14T02:32:55.001Z,4.70
2022-09-14T02:35:39.592Z,5.50
2022-09-14T02:38:05.943Z,4.83
2022-09-14T02:40:34.964Z,8.27
2022-09-14T02:43:04.301Z,8.57
2022-09-14T02:45:36.884Z,5.57
2022-09-14T02:48:12.150Z,6.67
2022-09-14T02:50:49.471Z,8.47
2022-09-14T02:53:21.491Z,7.00
2022-09-14T02:55:52.850Z,4.57
2022-09-14T02:58:19.294Z,7.13
2022-09-14T03:00:46.714Z,5.13
2022-09-14T03:03:15.760Z,4.53
2022-09-14T03:05:42.530Z,4.63
2022-09-14T03:08:10.265Z,2.67
2022-09-14T03:10:37.372Z,4.23
2022-09-14T03:13:03.893Z,5.27
2022-09-14T03:15:30.672Z,2.07
2022-09-14T03:17:57.082Z,3.63
2022-09-14T03:20:24.594Z,4.03
2022-09-14T03:22:51.045Z,3.17
2022-09-14T03:25:19.218Z,4.90
2022-09-14T03:27:53.387Z,2.10
2022-09-14T03:30:19.964Z,1.97
2022-09-14T03:32:46.481Z,2.07
2022-09-14T03:35:13.669Z,2.20
2022-09-14T03:37:40.802Z,4.23
2022-09-14T03:40:07.674Z,3.80
2022-09-14T03:42:34.341Z,3.87
2022-09-14T03:45:00.837Z,4.83
2022-09-14T03:47:27.464Z,3.83
2022-09-14T03:49:53.985Z,2.87
2022-09-14T03:52:20.436Z,3.63
2022-09-14T03:54:46.763Z,2.37
2022-09-14T03:57:13.130Z,3.53
2022-09-14T03:59:43.600Z,2.30
2022-09-14T04:02:10.279Z,2.50
2022-09-14T04:04:36.621Z,6.97
2022-09-14T04:07:02.992Z,10.43
2022-09-14T04:09:29.326Z,3.10
2022-09-14T04:11:55.692Z,5.03
2022-09-14T04:14:23.028Z,2.90
2022-09-14T04:16:49.370Z,4.67
2022-09-14T04:19:15.763Z,10.27
2022-09-14T04:21:42.118Z,3.10
2022-09-14T04:24:15.014Z,3.63
2022-09-14T04:26:42.909Z,2.10
2022-09-14T04:29:10.515Z,1.50
2022-09-14T04:31:36.998Z,2.60
2022-09-14T04:34:03.392Z,1.63
2022-09-14T04:36:31.172Z,1.43
2022-09-14T04:38:59.152Z,2.27
2022-09-14T04:41:25.961Z,1.53
2022-09-14T04:43:52.673Z,3.97
2022-09-14T04:46:20.689Z,1.40
2022-09-14T04:48:47.713Z,3.17
2022-09-14T04:51:18.595Z,2.40
2022-09-14T04:53:46.079Z,2.67
2022-09-14T04:56:13.503Z,2.27
2022-09-14T04:58:42.349Z,2.17
2022-09-14T05:01:10.130Z,2.33
2022-09-14T05:03:38.803Z,2.03
2022-09-14T05:06:06.447Z,1.30
2022-09-14T05:08:33.473Z,2.97
2022-09-14T05:10:59.853Z,2.30
2022-09-14T05:13:26.273Z,2.17
2022-09-14T05:15:52.697Z,1.47
2022-09-14T05:18:19.298Z,1.40
2022-09-14T05:20:45.645Z,3.37
2022-09-14T05:23:12.198Z,3.57
2022-09-14T05:25:38.568Z,2.13
2022-09-14T05:28:04.909Z,1.60
2022-09-14T05:30:31.233Z,2.50
2022-09-14T05:32:58.667Z,1.93
2022-09-14T05:35:24.972Z,2.47
2022-09-14T05:37:51.312Z,2.37
2022-09-14T05:40:17.858Z,1.00
2022-09-14T05:42:44.257Z,1.10
2022-09-14T05:45:10.730Z,2.20
2022-09-14T05:47:39.174Z,1.80
2022-09-14T05:50:06.067Z,2.20
2022-09-14T05:52:32.427Z,2.73
2022-09-14T05:54:58.766Z,3.93
2022-09-14T05:57:25.103Z,2.73
2022-09-14T05:59:51.433Z,3.30
2022-09-14T06:02:18.378Z,2.60
2022-09-14T06:04:44.847Z,5.83
2022-09-14T06:07:18.404Z,3.60
2022-09-14T06:09:45.399Z,4.20
2022-09-14T06:12:11.872Z,4.93
2022-09-14T06:14:38.361Z,5.70
2022-09-14T06:17:05.720Z,6.83
2022-09-14T06:19:32.093Z,3.50
2022-09-14T06:21:58.475Z,7.03
2022-09-14T06:24:24.949Z,8.60
2022-09-14T06:26:51.276Z,6.50
2022-09-14T06:29:17.597Z,5.20
2022-09-14T06:31:43.991Z,6.50
2022-09-14T06:34:10.309Z,6.20
2022-09-14T06:36:36.634Z,8.53
2022-09-14T06:39:02.973Z,4.50
2022-09-14T06:41:30.491Z,6.23
2022-09-14T06:43:58.004Z,3.43
2022-09-14T06:46:25.754Z,3.10
2022-09-14T06:49:11.603Z,4.13
2022-09-14T06:51:39.843Z,4.30
2022-09-14T06:54:06.594Z,4.47
2022-09-14T06:56:34.588Z,4.20
2022-09-14T06:59:00.944Z,3.83
2022-09-14T07:01:27.774Z,3.70
2022-09-14T07:03:54.537Z,5.73
2022-09-14T07:06:22.438Z,2.90
2022-09-14T07:08:49.324Z,3.83
2022-09-14T07:11:17.192Z,3.10
2022-09-14T07:13:44.109Z,4.00
2022-09-14T07:16:11.428Z,4.63
2022-09-14T07:18:38.309Z,4.47
2022-09-14T07:21:05.972Z,4.37
2022-09-14T07:23:32.850Z,5.50
2022-09-14T07:26:00.178Z,5.00
2022-09-14T07:28:27.045Z,4.77
2022-09-14T07:30:58.342Z,4.83
2022-09-14T07:33:25.296Z,4.50
2022-09-14T07:35:52.919Z,4.70
2022-09-14T07:38:30.731Z,5.60
2022-09-14T07:41:07.988Z,5.97
2022-09-14T07:43:34.961Z,5.40
2022-09-14T07:46:02.094Z,5.93
2022-09-14T07:48:28.457Z,8.63
2022-09-14T07:51:05.633Z,12.10
2022-09-14T07:53:32.710Z,12.90
2022-09-14T07:56:00.533Z,10.90
2022-09-14T07:58:27.825Z,11.30
2022-09-14T08:01:04.787Z,12.63
2022-09-14T08:03:31.608Z,10.80
2022-09-14T08:06:05.766Z,13.87
2022-09-14T08:08:33.136Z,11.03
2022-09-14T08:11:03.593Z,13.40
2022-09-14T08:13:30.881Z,13.33
2022-09-14T08:16:00.166Z,15.17
2022-09-14T08:18:26.933Z,13.23
2022-09-14T08:20:53.364Z,14.00
2022-09-14T08:23:19.684Z,15.80
2022-09-14T08:25:45.966Z,16.33
2022-09-14T08:28:12.428Z,18.30
2022-09-14T08:30:38.884Z,18.33
2022-09-14T08:33:05.281Z,22.50
2022-09-14T08:35:56.454Z,18.60
2022-09-14T08:38:21.060Z,18.60
2022-09-14T08:40:47.382Z,18.60
2022-09-14T08:43:14.235Z,24.23
2022-09-14T08:45:42.612Z,24.23
2022-09-14T08:48:20.148Z,22.23
2022-09-14T08:50:46.491Z,22.93
2022-09-14T08:53:12.802Z,25.60
2022-09-14T08:55:42.985Z,25.17
2022-09-14T08:58:15.102Z,27.60
2022-09-14T09:00:47.303Z,28.47
2022-09-14T09:03:29.218Z,26.97
2022-09-14T09:06:07.783Z,24.83
2022-09-14T09:08:38.975Z,29.13
2022-09-14T09:11:07.263Z,27.70
2022-09-14T09:13:35.477Z,26.90
2022-09-14T09:16:03.766Z,25.87
2022-09-14T09:18:44.499Z,22.50
2022-09-14T09:21:17.850Z,29.97
2022-09-14T09:23:44.291Z,30.47
2022-09-14T09:26:25.284Z,25.33
2022-09-14T09:28:52.754Z,26.87
2022-09-14T09:31:21.588Z,25.40
2022-09-14T09:34:15.184Z,26.90
2022-09-14T09:36:48.509Z,24.30
2022-09-14T09:39:15.565Z,23.10
2022-09-14T09:41:47.347Z,22.47
2022-09-14T09:44:14.191Z,23.07
2022-09-14T09:46:40.510Z,22.87
2022-09-14T09:49:28.114Z,21.33
2022-09-14T09:51:54.934Z,18.47
2022-09-14T09:54:26.685Z,18.90
2022-09-14T09:56:55.822Z,23.40
2022-09-14T09:59:28.155Z,17.47
2022-09-14T10:01:55.377Z,19.07
2022-09-14T10:04:24.534Z,18.60
2022-09-14T10:06:53.131Z,14.90
2022-09-14T10:09:21.009Z,21.07
2022-09-14T10:11:48.317Z,16.63
2022-09-14T10:14:20.597Z,16.77
2022-09-14T10:16:47.489Z,17.00
2022-09-14T10:19:22.053Z,16.67
2022-09-14T10:22:02.884Z,14.57
2022-09-14T10:24:29.208Z,14.00
2022-09-14T10:26:55.533Z,14.83
2022-09-14T10:29:31.757Z,13.40
2022-09-14T10:32:01.052Z,13.70
2022-09-14T10:34:28.313Z,12.13
2022-09-14T10:37:04.469Z,11.90
2022-09-14T10:39:33.514Z,14.77
2022-09-14T10:42:14.245Z,13.17
2022-09-14T10:44:40.683Z,11.40
2022-09-14T10:47:09.992Z,10.47
2022-09-14T10:49:49.963Z,15.20
2022-09-14T10:52:22.385Z,12.93
2022-09-14T10:54:56.153Z,11.80
2022-09-14T10:57:25.256Z,10.27
2022-09-14T10:59:56.045Z,8.80
2022-09-14T11:02:41.048Z,9.33
2022-09-14T11:05:12.813Z,10.43
2022-09-14T11:07:57.815Z,9.00
2022-09-14T11:10:37.957Z,9.30
2022-09-14T11:13:25.843Z,9.80
2022-09-14T11:15:54.952Z,8.00
2022-09-14T11:18:27.650Z,8.07
2022-09-14T11:21:16.902Z,6.07
2022-09-14T11:23:47.688Z,8.07
2022-09-14T11:26:24.686Z,4.77
2022-09-14T11:28:56.499Z,6.33
2022-09-14T11:31:26.346Z,8.33
2022-09-14T11:34:27.942Z,7.73
2022-09-14T11:36:56.453Z,12.07
2022-09-14T11:39:25.183Z,10.87
2022-09-14T11:41:53.881Z,10.43
2022-09-14T11:44:32.660Z,9.47
2022-09-14T11:47:04.037Z,11.30
2022-09-14T11:49:48.787Z,7.83
2022-09-14T11:52:20.878Z,8.80
2022-09-14T11:54:48.377Z,8.00
2022-09-14T11:57:17.497Z,7.73
2022-09-14T11:59:44.241Z,8.07
2022-09-14T12:02:22.825Z,8.33
2022-09-14T12:05:04.232Z,7.70
2022-09-14T12:07:39.690Z,6.37
2022-09-14T12:10:18.178Z,8.10
2022-09-14T12:12:46.054Z,6.10
2022-09-14T12:15:17.621Z,6.67
2022-09-14T12:17:45.199Z,4.77
2022-09-14T12:20:20.798Z,6.47
2022-09-14T12:22:50.287Z,6.67
2022-09-14T12:25:18.710Z,6.47
2022-09-14T12:27:46.610Z,5.70
2022-09-14T12:30:37.099Z,7.53
2022-09-14T12:33:42.707Z,6.10
2022-09-14T12:36:10.950Z,6.13
2022-09-14T12:38:37.775Z,6.77
2022-09-14T12:41:07.061Z,5.87
2022-09-14T12:43:33.377Z,5.90
2022-09-14T12:46:10.141Z,8.83
2022-09-14T12:48:48.268Z,6.27
2022-09-14T12:51:17.516Z,8.63
2022-09-14T12:53:43.948Z,7.37
2022-09-14T12:56:20.180Z,8.93
2022-09-14T12:59:02.106Z,6.57
2022-09-14T13:01:36.594Z,12.00
2022-09-14T13:04:03.805Z,7.03
2022-09-14T13:06:35.195Z,4.90
2022-09-14T13:09:03.702Z,5.60
2022-09-14T13:11:34.112Z,5.20
2022-09-14T13:14:01.647Z,5.53
2022-09-14T13:16:35.401Z,5.23
2022-09-14T13:19:03.148Z,4.90
2022-09-14T13:21:29.424Z,5.77
2022-09-14T13:23:55.850Z,5.30
2022-09-14T13:26:31.676Z,4.37
2022-09-14T13:28:59.565Z,4.07
2022-09-14T13:31:26.658Z,5.10
2022-09-14T13:33:54.247Z,7.77
2022-09-14T13:36:23.430Z,7.77
2022-09-14T13:38:50.133Z,7.00
2022-09-14T13:41:17.830Z,3.50
2022-09-14T13:43:44.893Z,3.93
2022-09-14T13:46:11.805Z,3.37
2022-09-14T13:48:40.384Z,3.00
2022-09-14T13:51:06.950Z,1.83
2022-09-14T13:53:36.192Z,2.03
2022-09-14T13:56:16.283Z,3.17
2022-09-14T13:58:42.566Z,1.40
2022-09-14T14:01:09.285Z,3.30
2022-09-14T14:03:46.700Z,3.77
2022-09-14T14:06:16.014Z,3.10
2022-09-14T14:08:42.344Z,4.20
2022-09-14T14:11:08.920Z,2.83
2022-09-14T14:13:37.140Z,2.73
2022-09-14T14:16:13.792Z,2.80
2022-09-14T14:18:41.502Z,1.37
2022-09-14T14:21:27.845Z,1.33
2022-09-14T14:24:13.588Z,0.80
2022-09-14T14:26:47.121Z,0.80
2022-09-14T14:29:16.163Z,2.63
2022-09-14T14:34:40.317Z,1.73
2022-09-14T14:37:06.633Z,2.40
2022-09-14T14:39:32.920Z,1.30
2022-09-14T14:42:01.131Z,1.63
2022-09-14T14:44:28.851Z,2.47
2022-09-14T14:46:56.008Z,2.20
2022-09-14T14:49:23.614Z,1.10
2022-09-14T14:51:50.255Z,1.33
2022-09-14T14:54:18.473Z,2.40
2022-09-14T14:56:49.027Z,2.33
2022-09-14T14:59:25.929Z,4.10
2022-09-14T15:01:53.616Z,1.67
2022-09-14T15:04:20.184Z,3.07
2022-09-14T15:06:47.118Z,2.83
2022-09-14T15:09:18.138Z,1.70
2022-09-14T15:11:45.145Z,2.57
2022-09-14T15:14:13.145Z,3.00
2022-09-14T15:16:39.625Z,2.93
2022-09-14T15:19:06.102Z,1.63
2022-09-14T15:21:32.381Z,2.30
2022-09-14T15:23:59.119Z,2.03
2022-09-14T15:26:25.874Z,4.37
2022-09-14T15:28:52.438Z,3.27
2022-09-14T15:31:19.210Z,1.53
2022-09-14T15:33:45.670Z,1.50
2022-09-14T15:36:12.239Z,2.43
2022-09-14T15:38:38.768Z,2.27
2022-09-14T15:41:05.138Z,4.20
2022-09-14T15:43:31.428Z,3.00
2022-09-14T15:46:04.062Z,1.70
2022-09-14T15:48:30.541Z,2.50
2022-09-14T15:51:00.533Z,3.27
2022-09-14T15:53:26.972Z,3.00
2022-09-14T15:55:53.281Z,3.17
2022-09-14T15:58:19.564Z,2.10
2022-09-14T16:00:45.906Z,4.60
2022-09-14T16:03:12.330Z,3.30
2022-09-14T16:05:39.037Z,4.43
2022-09-14T16:08:05.458Z,3.30
2022-09-14T16:10:31.825Z,5.43
2022-09-14T16:12:58.137Z,4.13
2022-09-14T16:15:24.498Z,3.10
2022-09-14T16:17:52.267Z,2.67
2022-09-14T16:20:19.674Z,4.10
2022-09-14T16:22:47.570Z,3.80
2022-09-14T16:25:14.542Z,4.77
2022-09-14T16:27:41.182Z,2.87
2022-09-14T16:30:07.908Z,3.63
2022-09-14T16:32:34.278Z,5.20
2022-09-14T16:35:02.783Z,3.17
2022-09-14T16:37:32.214Z,4.60
2022-09-14T16:39:58.577Z,4.27
2022-09-14T16:42:25.387Z,4.10
2022-09-14T16:44:51.689Z,6.47
2022-09-14T16:47:18.142Z,3.57
2022-09-14T16:49:44.509Z,5.73
2022-09-14T16:52:10.803Z,3.97
2022-09-14T16:54:37.124Z,5.77
2022-09-14T16:57:03.585Z,3.10
2022-09-14T16:59:29.895Z,5.70
2022-09-14T17:01:56.315Z,3.40
2022-09-14T17:04:23.446Z,3.83
2022-09-14T17:06:51.448Z,4.73
2022-09-14T17:09:19.324Z,6.43
2022-09-14T17:11:45.706Z,4.47
2022-09-14T17:14:25.044Z,3.83
2022-09-14T17:16:51.704Z,2.20
2022-09-14T17:19:18.169Z,3.93
2022-09-14T17:21:45.341Z,2.73
2022-09-14T17:24:12.387Z,1.37
2022-09-14T17:26:38.748Z,1.03
2022-09-14T17:29:05.420Z,0.90
2022-09-14T17:31:33.712Z,2.73
2022-09-14T17:34:00.964Z,1.07
2022-09-14T17:36:27.348Z,1.77
2022-09-14T17:38:55.605Z,2.20
2022-09-14T17:41:23.073Z,2.30
2022-09-14T17:43:53.624Z,1.50
2022-09-14T17:46:22.027Z,1.00
2022-09-14T17:48:49.315Z,1.17
2022-09-14T17:51:20.275Z,2.10
2022-09-14T17:53:47.483Z,1.40
2022-09-14T17:56:15.237Z,1.40
2022-09-14T17:58:42.130Z,3.13
2022-09-14T18:01:09.697Z,2.73
2022-09-14T18:03:36.805Z,2.70
2022-09-14T18:06:04.431Z,2.53
2022-09-14T18:08:30.756Z,2.60
2022-09-14T18:10:57.217Z,2.37
2022-09-14T18:13:23.561Z,1.40
2022-09-14T18:15:54.666Z,2.47
2022-09-14T18:18:20.957Z,1.50
2022-09-14T18:20:47.226Z,4.33
2022-09-14T18:23:13.519Z,2.73
2022-09-14T18:25:40.436Z,5.97
2022-09-14T18:28:06.844Z,5.37
2022-09-14T18:30:34.351Z,2.73
2022-09-14T18:33:00.913Z,7.00
2022-09-14T18:35:28.121Z,3.30
2022-09-14T18:37:54.692Z,6.63
2022-09-14T18:40:21.206Z,3.63
2022-09-14T18:42:48.378Z,4.77
2022-09-14T18:45:14.702Z,2.30
2022-09-14T18:47:40.974Z,3.23
2022-09-14T18:50:07.723Z,1.57
2022-09-14T18:52:34.063Z,4.73
2022-09-14T18:55:00.347Z,3.40
2022-09-14T18:57:27.927Z,4.87
2022-09-14T18:59:54.175Z,2.23
2022-09-14T19:02:20.534Z,5.03
2022-09-14T19:04:48.662Z,9.20
2022-09-14T19:07:14.929Z,3.37
2022-09-14T19:09:41.210Z,4.37
2022-09-14T19:12:07.650Z,2.07
2022-09-14T19:14:33.947Z,3.50
2022-09-14T19:17:00.305Z,2.53
2022-09-14T19:19:26.711Z,2.33
2022-09-14T19:21:53.969Z,3.20
2022-09-14T19:24:20.546Z,4.13
2022-09-14T19:26:48.021Z,2.37
2022-09-14T19:29:15.253Z,3.87
2022-09-14T19:31:41.643Z,2.90
2022-09-14T19:34:08.063Z,2.57
2022-09-14T19:36:37.364Z,1.67
2022-09-14T19:39:04.203Z,4.53
2022-09-14T19:41:31.360Z,4.13
2022-09-14T19:43:57.799Z,2.93
2022-09-14T19:46:24.601Z,2.27
2022-09-14T19:48:51.797Z,1.80
2022-09-14T19:51:22.925Z,1.67
2022-09-14T19:53:50.402Z,2.23
2022-09-14T19:56:18.187Z,1.90
2022-09-14T19:58:46.749Z,2.13
2022-09-14T20:01:13.700Z,1.50
2022-09-14T20:03:40.996Z,3.10
2022-09-14T20:06:09.085Z,1.00
2022-09-14T20:08:35.972Z,2.30
2022-09-14T20:11:07.060Z,1.30
2022-09-14T20:13:33.876Z,2.10
2022-09-14T20:16:00.841Z,2.93
2022-09-14T20:18:30.462Z,1.00
2022-09-14T20:20:56.848Z,2.47
2022-09-14T20:23:23.169Z,2.03
2022-09-14T20:25:49.694Z,2.60
2022-09-14T20:28:16.828Z,1.37
2022-09-14T20:30:43.238Z,2.20
2022-09-14T20:33:09.607Z,1.53
2022-09-14T20:35:36.822Z,4.13
2022-09-14T20:38:03.162Z,3.03
2022-09-14T20:40:29.548Z,1.80
2022-09-14T20:42:55.953Z,2.03
2022-09-14T20:45:22.296Z,0.80
2022-09-14T20:47:48.612Z,2.00
2022-09-14T20:50:15.090Z,1.40
2022-09-14T20:52:41.436Z,1.63
2022-09-14T20:55:08.359Z,3.80
2022-09-14T20:57:34.812Z,1.90
2022-09-14T21:00:01.370Z,1.27
2022-09-14T21:02:27.725Z,3.13
2022-09-14T21:04:54.070Z,2.43
2022-09-14T21:07:20.462Z,1.17
2022-09-14T21:09:46.789Z,1.73
2022-09-14T21:12:15.035Z,1.53
2022-09-14T21:14:42.391Z,2.77
2022-09-14T21:17:08.711Z,1.40
2022-09-14T21:19:36.019Z,2.50
2022-09-14T21:22:02.702Z,3.27
2022-09-14T21:24:30.998Z,2.60
2022-09-14T21:26:57.484Z,2.83
2022-09-14T21:29:24.502Z,0.60
2022-09-14T21:31:51.204Z,1.17
2022-09-14T21:34:18.007Z,0.80
2022-09-14T21:36:46.695Z,2.30
2022-09-14T21:39:17.590Z,1.83
2022-09-14T21:41:44.774Z,1.03
2022-09-14T21:44:11.907Z,1.73
2022-09-14T21:46:38.331Z,1.87
2022-09-14T21:49:04.722Z,2.10
2022-09-14T21:51:35.323Z,2.00
2022-09-14T21:54:04.997Z,1.13
2022-09-14T21:56:33.276Z,1.70
2022-09-14T21:59:00.787Z,3.93
2022-09-14T22:01:27.581Z,3.53
2022-09-14T22:03:54.665Z,11.17
2022-09-14T22:06:23.959Z,2.30
2022-09-14T22:08:51.747Z,4.80
2022-09-14T22:11:23.215Z,3.57
2022-09-14T22:13:54.240Z,1.37
2022-09-14T22:16:20.649Z,3.30
2022-09-14T22:18:49.120Z,4.10
2022-09-14T22:21:15.963Z,1.77
2022-09-14T22:23:43.196Z,3.37
2022-09-14T22:26:10.935Z,1.23
2022-09-14T22:28:39.984Z,1.30
2022-09-14T22:31:07.038Z,2.30
2022-09-14T22:33:33.771Z,4.10
2022-09-14T22:36:02.021Z,1.30
2022-09-14T22:38:31.552Z,1.67
2022-09-14T22:40:59.746Z,4.93
2022-09-14T22:43:27.112Z,2.57
2022-09-14T22:45:54.091Z,1.67
2022-09-14T22:48:20.658Z,1.87
2022-09-14T22:50:48.294Z,3.63
2022-09-14T22:53:15.036Z,4.03
2022-09-14T22:55:42.332Z,1.53
2022-09-14T22:58:09.185Z,3.03
2022-09-14T23:00:37.288Z,1.40
2022-09-14T23:03:03.699Z,2.30
2022-09-14T23:05:30.047Z,1.83
2022-09-14T23:07:56.370Z,1.90
2022-09-14T23:10:23.223Z,1.73
2022-09-14T23:12:49.532Z,3.17
2022-09-14T23:15:15.980Z,2.40
2022-09-14T23:17:42.331Z,3.30
2022-09-14T23:20:09.449Z,2.07
2022-09-14T23:22:36.335Z,4.43
2022-09-14T23:25:03.400Z,2.60
2022-09-14T23:27:29.760Z,4.47
2022-09-14T23:29:56.062Z,3.10
2022-09-14T23:32:22.433Z,2.43
2022-09-14T23:34:48.746Z,3.23
2022-09-14T23:37:15.418Z,3.20
2022-09-14T23:39:41.727Z,1.73
2022-09-14T23:42:08.392Z,2.47
2022-09-14T23:44:35.044Z,2.20
2022-09-14T23:47:01.476Z,2.30
2022-09-14T23:49:27.827Z,2.83
2022-09-14T23:51:54.149Z,2.73
2022-09-14T23:54:20.487Z,1.80
2022-09-14T23:56:46.799Z,3.23
2022-09-14T23:59:14.142Z,2.00
